Time;durP1;ratioP1;P1;durP2;ratioP2;P2;SDS_P1;SDS_P2;PMS_P1;PMS_P2;Temp;Humidity;BMP_temperature;BMP_pressure;BME280_temperature;BME280_humidity;BME280_pressure;Samples;Min_cycle;Max_cycle;Signal;HPM_P1;HPM_P2
2021/03/15 00:00:44;;;;;;;9.02;2.70;;;;;;;;;;5134925;27;20193;-76
2021/03/15 00:03:10;;;;;;;13.18;5.05;;;;;;;;;;5135135;27;20035;-76
2021/03/15 00:05:36;;;;;;;13.40;3.20;;;;;;;;;;5115498;27;20770;-77
2021/03/15 00:08:02;;;;;;;22.58;3.53;;;;;;;;;;5135085;27;20031;-76
2021/03/15 00:10:28;;;;;;;17.17;4.40;;;;;;;;;;5134156;27;20031;-76
2021/03/15 00:12:53;;;;;;;18.65;4.32;;;;;;;;;;5135176;27;20031;-77
2021/03/15 00:15:21;;;;;;;8.88;2.95;;;;;;;;;;5135033;27;20030;-76
2021/03/15 00:17:47;;;;;;;9.77;3.40;;;;;;;;;;5134908;27;20042;-76
2021/03/15 00:20:15;;;;;;;11.23;4.00;;;;;;;;;;5134593;27;20068;-76
2021/03/15 00:22:41;;;;;;;15.95;4.47;;;;;;;;;;5134815;27;20465;-76
2021/03/15 00:25:08;;;;;;;14.38;4.53;;;;;;;;;;5134875;27;20106;-76
2021/03/15 00:27:34;;;;;;;16.02;4.55;;;;;;;;;;5116428;27;20041;-75
2021/03/15 00:30:00;;;;;;;11.75;4.25;;;;;;;;;;5116434;27;20031;-75
2021/03/15 00:32:26;;;;;;;16.40;4.10;;;;;;;;;;5134716;27;20042;-75
2021/03/15 00:34:51;;;;;;;15.93;4.22;;;;;;;;;;5134649;27;20027;-75
2021/03/15 00:37:17;;;;;;;21.75;5.15;;;;;;;;;;5134752;27;20442;-75
2021/03/15 00:39:43;;;;;;;12.23;4.30;;;;;;;;;;5134638;27;20088;-75
2021/03/15 00:42:08;;;;;;;16.52;4.75;;;;;;;;;;5116214;27;20015;-75
2021/03/15 00:44:35;;;;;;;13.13;4.68;;;;;;;;;;5134573;27;20041;-75
2021/03/15 00:47:03;;;;;;;14.30;5.47;;;;;;;;;;5134537;27;20168;-75
2021/03/15 00:49:29;;;;;;;12.35;5.25;;;;;;;;;;5134718;27;20102;-75
2021/03/15 00:51:54;;;;;;;15.00;5.25;;;;;;;;;;5133841;27;20491;-75
2021/03/15 00:54:21;;;;;;;14.52;5.70;;;;;;;;;;5116217;27;20031;-75
2021/03/15 00:56:48;;;;;;;18.75;6.47;;;;;;;;;;5115233;27;20423;-75
2021/03/15 00:59:14;;;;;;;13.88;5.97;;;;;;;;;;5134766;27;20671;-75
2021/03/15 01:01:42;;;;;;;16.35;6.60;;;;;;;;;;5115768;28;20027;-75
2021/03/15 01:04:12;;;;;;;12.93;5.70;;;;;;;;;;5116059;28;20118;-75
2021/03/15 01:06:37;;;;;;;19.52;6.25;;;;;;;;;;5134051;27;20527;-76
2021/03/15 01:09:10;;;;;;;15.57;5.70;;;;;;;;;;5115878;28;20035;-76
2021/03/15 01:11:44;;;;;;;19.85;7.00;;;;;;;;;;5134351;28;20119;-76
2021/03/15 01:14:13;;;;;;;13.15;6.10;;;;;;;;;;5115661;28;20046;-77
2021/03/15 01:16:56;;;;;;;22.88;7.97;;;;;;;;;;5137001;27;20073;-77
2021/03/15 01:19:26;;;;;;;13.10;6.90;;;;;;;;;;5119450;27;20031;-76
2021/03/15 01:21:52;;;;;;;17.50;6.75;;;;;;;;;;5138465;27;20059;-75
2021/03/15 01:24:17;;;;;;;12.40;5.30;;;;;;;;;;5138428;27;20456;-75
2021/03/15 01:26:42;;;;;;;13.90;6.28;;;;;;;;;;5138074;27;20031;-75
2021/03/15 01:29:08;;;;;;;15.18;6.25;;;;;;;;;;5138311;27;20372;-76
2021/03/15 01:31:34;;;;;;;14.95;6.97;;;;;;;;;;5138201;27;20392;-76
2021/03/15 01:33:59;;;;;;;24.17;7.50;;;;;;;;;;5138105;27;20027;-77
2021/03/15 01:36:25;;;;;;;13.60;6.72;;;;;;;;;;5119646;27;20135;-76
2021/03/15 01:38:50;;;;;;;14.50;7.03;;;;;;;;;;5119563;27;20088;-77
2021/03/15 01:41:15;;;;;;;11.07;6.15;;;;;;;;;;5137820;27;20072;-76
2021/03/15 01:43:41;;;;;;;14.80;6.50;;;;;;;;;;5138059;27;20023;-77
2021/03/15 01:46:06;;;;;;;14.70;5.93;;;;;;;;;;5137621;27;20070;-77
2021/03/15 01:48:32;;;;;;;15.98;6.38;;;;;;;;;;5137054;27;20035;-76
2021/03/15 01:50:58;;;;;;;19.50;7.40;;;;;;;;;;5119539;27;20038;-76
2021/03/15 01:53:24;;;;;;;15.40;6.72;;;;;;;;;;5119547;27;20032;-76
2021/03/15 01:55:50;;;;;;;16.23;6.68;;;;;;;;;;5137769;27;20034;-76
2021/03/15 01:58:16;;;;;;;25.55;7.72;;;;;;;;;;5137608;27;20036;-76
2021/03/15 02:00:42;;;;;;;21.38;8.77;;;;;;;;;;5137522;27;20035;-77
2021/03/15 02:03:11;;;;;;;26.77;7.32;;;;;;;;;;5119051;27;20100;-77
2021/03/15 02:05:38;;;;;;;17.67;7.60;;;;;;;;;;5137392;27;20027;-77
2021/03/15 02:08:05;;;;;;;20.77;6.13;;;;;;;;;;5137313;27;20035;-77
2021/03/15 02:10:32;;;;;;;13.02;6.07;;;;;;;;;;5136256;27;20031;-76
2021/03/15 02:13:12;;;;;;;19.15;7.60;;;;;;;;;;5137238;27;20027;-77
2021/03/15 02:15:48;;;;;;;15.68;7.00;;;;;;;;;;5137429;27;20062;-76
2021/03/15 02:18:42;;;;;;;15.15;7.45;;;;;;;;;;5137073;27;20250;-76
2021/03/15 02:21:10;;;;;;;18.20;7.28;;;;;;;;;;5116742;28;20059;-77
2021/03/15 02:23:52;;;;;;;10.02;6.65;;;;;;;;;;5116573;28;20415;-76
2021/03/15 02:26:53;;;;;;;16.90;7.80;;;;;;;;;;5098220;28;20031;-76
2021/03/15 02:29:51;;;;;;;12.90;6.97;;;;;;;;;;5084284;28;20075;-76
2021/03/15 02:32:46;;;;;;;16.48;7.45;;;;;;;;;;5116379;28;20032;-77
2021/03/15 02:35:17;;;;;;;20.88;9.60;;;;;;;;;;5097883;28;20044;-77
2021/03/15 02:37:46;;;;;;;16.33;8.30;;;;;;;;;;5116143;28;20489;-77
2021/03/15 02:40:19;;;;;;;14.15;7.80;;;;;;;;;;5116268;28;20035;-76
2021/03/15 02:42:49;;;;;;;19.08;8.75;;;;;;;;;;5116339;28;20035;-77
2021/03/15 02:45:15;;;;;;;20.13;8.75;;;;;;;;;;5115895;28;20130;-76
2021/03/15 02:47:43;;;;;;;16.70;7.45;;;;;;;;;;5116145;28;20089;-77
2021/03/15 02:50:12;;;;;;;16.98;8.80;;;;;;;;;;5130564;27;20128;-77
2021/03/15 02:52:46;;;;;;;14.57;8.10;;;;;;;;;;5136561;27;20124;-77
2021/03/15 02:55:19;;;;;;;15.75;7.93;;;;;;;;;;5118086;27;20068;-77
2021/03/15 02:57:46;;;;;;;17.05;8.27;;;;;;;;;;5136532;27;20050;-76
2021/03/15 03:00:14;;;;;;;13.77;7.30;;;;;;;;;;5136516;27;20035;-77
2021/03/15 03:02:44;;;;;;;15.15;7.85;;;;;;;;;;5136225;27;20175;-77
2021/03/15 03:05:13;;;;;;;18.05;8.00;;;;;;;;;;5135966;27;20038;-76
2021/03/15 03:07:41;;;;;;;12.75;7.03;;;;;;;;;;5136235;27;20031;-76
2021/03/15 03:10:09;;;;;;;11.75;6.70;;;;;;;;;;5118017;27;20498;-77
2021/03/15 03:12:36;;;;;;;12.85;7.25;;;;;;;;;;5136376;27;20384;-77
2021/03/15 03:15:05;;;;;;;11.57;6.93;;;;;;;;;;5136029;27;20038;-74
2021/03/15 03:17:37;;;;;;;11.20;6.75;;;;;;;;;;5135928;27;20066;-74
2021/03/15 03:20:05;;;;;;;14.07;7.65;;;;;;;;;;5135891;27;20035;-74
2021/03/15 03:22:31;;;;;;;12.43;7.40;;;;;;;;;;5117073;27;20022;-74
2021/03/15 03:24:57;;;;;;;15.82;7.65;;;;;;;;;;5136089;27;20043;-74
2021/03/15 03:27:23;;;;;;;9.50;6.55;;;;;;;;;;5135900;27;20041;-75
2021/03/15 03:29:49;;;;;;;11.95;7.40;;;;;;;;;;5117538;27;20039;-73
2021/03/15 03:32:17;;;;;;;12.50;7.70;;;;;;;;;;5135876;27;20549;-73
2021/03/15 03:34:42;;;;;;;16.50;7.88;;;;;;;;;;5135707;27;20123;-73
2021/03/15 03:37:09;;;;;;;11.88;7.43;;;;;;;;;;5135901;27;20065;-74
2021/03/15 03:39:34;;;;;;;14.32;8.55;;;;;;;;;;5117310;27;20046;-74
2021/03/15 03:42:00;;;;;;;12.95;7.72;;;;;;;;;;5134943;27;20400;-74
2021/03/15 03:44:25;;;;;;;12.45;7.45;;;;;;;;;;5117427;27;20049;-74
2021/03/15 03:46:51;;;;;;;9.73;6.60;;;;;;;;;;5135331;27;20042;-74
2021/03/15 03:49:16;;;;;;;12.43;7.43;;;;;;;;;;5116443;27;20043;-74
2021/03/15 03:51:50;;;;;;;8.85;6.47;;;;;;;;;;5135383;27;20039;-73
2021/03/15 03:54:22;;;;;;;11.38;7.00;;;;;;;;;;5135273;27;20370;-73
2021/03/15 03:57:09;;;;;;;9.00;6.63;;;;;;;;;;5135041;27;20137;-73
2021/03/15 03:59:40;;;;;;;15.40;7.13;;;;;;;;;;5135205;27;20034;-73
2021/03/15 04:02:09;;;;;;;10.15;7.05;;;;;;;;;;5135253;27;20023;-71
2021/03/15 04:04:39;;;;;;;10.35;6.85;;;;;;;;;;5116101;27;20058;-72
2021/03/15 04:07:07;;;;;;;8.07;6.68;;;;;;;;;;5135045;27;20057;-72
2021/03/15 04:09:35;;;;;;;10.00;6.75;;;;;;;;;;5134857;27;20035;-72
2021/03/15 04:12:08;;;;;;;10.55;7.15;;;;;;;;;;5135000;27;20457;-72
2021/03/15 04:14:44;;;;;;;11.15;7.18;;;;;;;;;;5116479;27;20039;-72
2021/03/15 04:17:14;;;;;;;12.27;6.72;;;;;;;;;;5135167;27;20031;-72
2021/03/15 04:19:47;;;;;;;13.60;8.38;;;;;;;;;;5134089;27;20548;-73
2021/03/15 04:22:13;;;;;;;10.25;7.43;;;;;;;;;;5134777;27;20489;-73
2021/03/15 04:24:40;;;;;;;12.52;7.85;;;;;;;;;;5134810;27;20035;-73
2021/03/15 04:27:07;;;;;;;8.82;7.40;;;;;;;;;;5134807;27;20039;-73
2021/03/15 04:29:33;;;;;;;9.50;7.40;;;;;;;;;;5116282;27;20046;-73
2021/03/15 04:32:00;;;;;;;11.27;7.60;;;;;;;;;;5134781;27;20023;-73
2021/03/15 04:34:28;;;;;;;10.18;7.63;;;;;;;;;;5134565;27;20038;-72
2021/03/15 04:36:54;;;;;;;11.65;7.78;;;;;;;;;;5116225;27;20068;-72
2021/03/15 04:39:20;;;;;;;13.10;8.65;;;;;;;;;;5134693;27;20468;-72
2021/03/15 04:41:46;;;;;;;12.38;8.05;;;;;;;;;;5134683;27;20122;-73
2021/03/15 04:44:12;;;;;;;9.68;7.68;;;;;;;;;;5134643;27;20131;-73
2021/03/15 04:46:40;;;;;;;13.07;8.63;;;;;;;;;;5133974;27;20050;-73
2021/03/15 04:49:07;;;;;;;10.02;8.48;;;;;;;;;;5134512;27;20027;-73
2021/03/15 04:51:36;;;;;;;11.88;7.93;;;;;;;;;;5115419;27;20030;-72
2021/03/15 04:54:03;;;;;;;10.50;7.97;;;;;;;;;;5116205;28;20108;-73
2021/03/15 04:56:29;;;;;;;14.25;8.75;;;;;;;;;;5134127;27;20031;-72
2021/03/15 04:58:57;;;;;;;10.85;8.85;;;;;;;;;;5133783;27;20084;-72
2021/03/15 05:01:27;;;;;;;13.27;9.02;;;;;;;;;;5116016;28;20035;-72
2021/03/15 05:03:53;;;;;;;11.07;9.30;;;;;;;;;;5134353;27;20035;-73
2021/03/15 05:06:20;;;;;;;16.48;10.45;;;;;;;;;;5134172;27;20060;-72
2021/03/15 05:08:48;;;;;;;13.80;9.50;;;;;;;;;;5134181;28;20035;-72
2021/03/15 05:11:16;;;;;;;11.23;8.63;;;;;;;;;;5134315;28;20031;-72
2021/03/15 05:13:43;;;;;;;14.90;10.10;;;;;;;;;;5134272;28;20027;-72
2021/03/15 05:16:09;;;;;;;16.25;10.48;;;;;;;;;;5133988;27;20646;-72
2021/03/15 05:18:36;;;;;;;15.00;9.82;;;;;;;;;;5133185;28;20054;-72
2021/03/15 05:21:02;;;;;;;15.07;9.95;;;;;;;;;;5115789;28;20035;-72
2021/03/15 05:23:29;;;;;;;11.63;9.77;;;;;;;;;;5134231;28;20031;-72
2021/03/15 05:25:55;;;;;;;14.85;9.98;;;;;;;;;;5133654;27;20054;-72
2021/03/15 05:28:21;;;;;;;13.85;9.75;;;;;;;;;;5134040;28;20023;-72
2021/03/15 05:30:48;;;;;;;11.90;9.13;;;;;;;;;;5134158;28;20114;-72
2021/03/15 05:33:16;;;;;;;10.52;9.13;;;;;;;;;;5134072;28;20043;-73
2021/03/15 05:35:44;;;;;;;14.48;9.07;;;;;;;;;;5133635;27;20475;-73
2021/03/15 05:38:10;;;;;;;12.35;9.50;;;;;;;;;;5133965;28;20472;-73
2021/03/15 05:40:38;;;;;;;14.13;9.40;;;;;;;;;;5133977;28;20140;-73
2021/03/15 05:43:25;;;;;;;10.40;8.77;;;;;;;;;;5134115;28;20434;-73
2021/03/15 05:46:33;;;;;;;12.63;9.20;;;;;;;;;;5133709;27;20055;-73
2021/03/15 05:49:30;;;;;;;12.77;8.52;;;;;;;;;;5133862;28;20060;-73
2021/03/15 05:52:04;;;;;;;16.80;10.20;;;;;;;;;;5133982;28;20081;-73
2021/03/15 05:54:48;;;;;;;10.18;8.52;;;;;;;;;;5132492;27;20503;-73
2021/03/15 05:57:20;;;;;;;11.18;9.07;;;;;;;;;;5133897;28;20023;-73
2021/03/15 06:00:03;;;;;;;11.30;8.73;;;;;;;;;;5133751;28;20043;-73
2021/03/15 06:03:01;;;;;;;9.68;8.10;;;;;;;;;;5135604;27;20382;-73
2021/03/15 06:05:28;;;;;;;12.77;9.02;;;;;;;;;;5137446;27;20506;-74
2021/03/15 06:08:06;;;;;;;11.20;9.15;;;;;;;;;;5137282;27;20035;-74
2021/03/15 06:11:04;;;;;;;10.55;9.32;;;;;;;;;;5137692;27;20096;-75
2021/03/15 06:13:34;;;;;;;12.77;9.70;;;;;;;;;;5137373;27;20445;-75
2021/03/15 06:16:04;;;;;;;11.38;9.27;;;;;;;;;;5137368;27;20400;-74
2021/03/15 06:18:30;;;;;;;10.32;8.65;;;;;;;;;;5137100;27;20039;-75
2021/03/15 06:20:57;;;;;;;11.68;9.18;;;;;;;;;;5137347;27;20028;-75
2021/03/15 06:23:24;;;;;;;11.45;9.25;;;;;;;;;;5136628;27;20027;-75
2021/03/15 06:25:50;;;;;;;12.85;9.60;;;;;;;;;;5137112;27;20031;-74
2021/03/15 06:28:17;;;;;;;13.63;9.05;;;;;;;;;;5118598;27;20445;-75
2021/03/15 06:30:45;;;;;;;12.48;8.85;;;;;;;;;;5118270;27;20035;-75
2021/03/15 06:33:11;;;;;;;13.43;11.02;;;;;;;;;;5116601;27;20434;-75
2021/03/15 06:35:43;;;;;;;13.13;9.85;;;;;;;;;;5116749;27;20031;-75
2021/03/15 06:38:09;;;;;;;13.82;10.20;;;;;;;;;;5117664;27;20031;-73
2021/03/15 06:40:38;;;;;;;13.80;9.93;;;;;;;;;;5136580;27;20368;-74
2021/03/15 06:43:05;;;;;;;10.45;8.75;;;;;;;;;;5136736;27;20057;-74
2021/03/15 06:45:31;;;;;;;12.65;9.38;;;;;;;;;;5136572;27;20069;-74
2021/03/15 06:47:58;;;;;;;10.20;8.25;;;;;;;;;;5136218;27;20069;-74
2021/03/15 06:50:24;;;;;;;10.13;7.93;;;;;;;;;;5136739;27;20058;-74
2021/03/15 06:52:52;;;;;;;10.10;7.70;;;;;;;;;;5136688;27;20433;-74
2021/03/15 06:55:19;;;;;;;11.02;8.40;;;;;;;;;;5135981;27;20106;-73
2021/03/15 06:57:45;;;;;;;11.10;8.98;;;;;;;;;;5116343;27;20046;-73
2021/03/15 07:00:12;;;;;;;10.15;8.45;;;;;;;;;;5136245;27;20031;-70
2021/03/15 07:02:37;;;;;;;10.02;8.32;;;;;;;;;;5136550;27;20030;-72
2021/03/15 07:05:08;;;;;;;9.43;7.90;;;;;;;;;;5135781;27;20042;-72
2021/03/15 07:07:34;;;;;;;8.75;7.63;;;;;;;;;;5136589;27;20385;-73
2021/03/15 07:10:00;;;;;;;8.32;6.90;;;;;;;;;;5136383;27;20529;-73
2021/03/15 07:12:26;;;;;;;8.95;6.90;;;;;;;;;;5118060;27;20035;-73
2021/03/15 07:15:04;;;;;;;7.55;6.50;;;;;;;;;;5135560;27;20473;-71
2021/03/15 07:17:29;;;;;;;7.50;6.47;;;;;;;;;;5134800;27;20392;-73
2021/03/15 07:19:55;;;;;;;7.10;6.35;;;;;;;;;;5135855;27;20034;-73
2021/03/15 07:22:26;;;;;;;7.45;6.70;;;;;;;;;;5116796;27;20038;-72
2021/03/15 07:25:20;;;;;;;7.05;6.35;;;;;;;;;;5135980;27;20035;-72
2021/03/15 07:27:53;;;;;;;8.82;6.07;;;;;;;;;;5118045;27;20043;-73
2021/03/15 07:30:28;;;;;;;8.63;6.90;;;;;;;;;;5135849;27;20042;-73
2021/03/15 07:32:58;;;;;;;8.77;5.93;;;;;;;;;;5135672;27;20042;-73
2021/03/15 07:35:30;;;;;;;7.13;6.07;;;;;;;;;;5117405;27;20122;-73
2021/03/15 07:37:55;;;;;;;7.47;6.68;;;;;;;;;;5117309;27;20039;-72
2021/03/15 07:40:39;;;;;;;7.68;6.22;;;;;;;;;;5135561;27;20035;-72
2021/03/15 07:43:07;;;;;;;6.43;5.35;;;;;;;;;;5135685;27;20046;-73
2021/03/15 07:45:35;;;;;;;6.13;5.35;;;;;;;;;;5135312;27;20043;-73
2021/03/15 07:48:13;;;;;;;5.97;5.38;;;;;;;;;;5135516;27;20035;-70
2021/03/15 07:50:41;;;;;;;5.97;5.40;;;;;;;;;;5135118;27;20480;-72
2021/03/15 07:53:07;;;;;;;8.48;5.68;;;;;;;;;;5135526;27;20039;-72
2021/03/15 07:55:34;;;;;;;6.30;5.45;;;;;;;;;;5135195;27;20046;-72
2021/03/15 07:58:00;;;;;;;6.82;6.13;;;;;;;;;;5135503;27;20035;-72
2021/03/15 08:00:26;;;;;;;6.10;5.43;;;;;;;;;;5124656;27;20039;-72
2021/03/15 08:02:52;;;;;;;8.07;5.38;;;;;;;;;;5114919;28;20477;-77
2021/03/15 08:05:17;;;;;;;6.00;5.03;;;;;;;;;;5096422;28;20043;-76
2021/03/15 08:07:43;;;;;;;5.28;4.78;;;;;;;;;;5134188;27;20031;-77
2021/03/15 08:10:09;;;;;;;5.85;4.93;;;;;;;;;;5135466;27;20498;-77
2021/03/15 08:12:36;;;;;;;6.25;5.07;;;;;;;;;;5134950;27;20596;-74
2021/03/15 08:15:10;;;;;;;5.93;5.30;;;;;;;;;;5134765;27;20039;-75
2021/03/15 08:17:46;;;;;;;9.70;5.30;;;;;;;;;;5135006;27;20095;-75
2021/03/15 08:20:12;;;;;;;6.10;5.43;;;;;;;;;;5134276;27;20031;-75
2021/03/15 08:22:42;;;;;;;8.02;4.57;;;;;;;;;;5134831;27;20080;-75
2021/03/15 08:25:09;;;;;;;7.55;5.10;;;;;;;;;;5134069;27;20062;-74
2021/03/15 08:27:43;;;;;;;6.50;5.05;;;;;;;;;;5134594;27;20211;-75
2021/03/15 08:30:34;;;;;;;4.88;4.13;;;;;;;;;;5134626;27;20076;-73
2021/03/15 08:33:00;;;;;;;5.97;4.15;;;;;;;;;;5134543;27;20043;-74
2021/03/15 08:35:25;;;;;;;3.83;3.42;;;;;;;;;;5134637;27;20076;-74
2021/03/15 08:37:55;;;;;;;4.63;3.40;;;;;;;;;;5116077;27;20052;-74
2021/03/15 08:40:39;;;;;;;4.68;2.92;;;;;;;;;;5134411;27;20042;-74
2021/03/15 08:43:17;;;;;;;6.85;3.63;;;;;;;;;;5134345;27;20035;-73
2021/03/15 08:45:47;;;;;;;3.97;2.67;;;;;;;;;;5134239;27;20043;-73
2021/03/15 08:48:13;;;;;;;4.53;2.42;;;;;;;;;;5134463;27;20035;-73
2021/03/15 08:50:38;;;;;;;6.40;2.42;;;;;;;;;;5134525;27;20087;-73
2021/03/15 08:53:03;;;;;;;6.68;2.20;;;;;;;;;;5134492;27;20031;-72
2021/03/15 08:55:48;;;;;;;4.43;2.78;;;;;;;;;;5134346;27;20432;-73
2021/03/15 08:58:37;;;;;;;3.13;1.48;;;;;;;;;;5115976;28;20054;-73
2021/03/15 09:01:04;;;;;;;7.50;2.08;;;;;;;;;;5134128;27;20088;-73
2021/03/15 09:03:49;;;;;;;3.53;1.50;;;;;;;;;;5134357;27;20042;-73
2021/03/15 09:06:36;;;;;;;6.22;2.55;;;;;;;;;;5134200;27;20043;-73
2021/03/15 09:09:05;;;;;;;4.72;2.40;;;;;;;;;;5097992;28;20531;-73
2021/03/15 09:11:34;;;;;;;4.78;2.30;;;;;;;;;;5134227;28;20031;-74
2021/03/15 09:14:24;;;;;;;4.28;2.28;;;;;;;;;;5134177;28;20050;-73
2021/03/15 09:16:56;;;;;;;7.60;2.80;;;;;;;;;;5133939;27;20118;-73
2021/03/15 09:19:40;;;;;;;5.25;2.28;;;;;;;;;;5133340;27;20058;-74
2021/03/15 09:22:21;;;;;;;6.65;2.50;;;;;;;;;;5134284;28;20023;-74
2021/03/15 09:24:59;;;;;;;6.72;2.53;;;;;;;;;;5133954;27;20032;-73
2021/03/15 09:27:35;;;;;;;4.68;2.03;;;;;;;;;;5133831;28;20051;-73
2021/03/15 09:30:08;;;;;;;6.03;2.55;;;;;;;;;;5133929;28;20031;-73
2021/03/15 09:32:36;;;;;;;4.10;2.55;;;;;;;;;;5134233;28;20107;-73
2021/03/15 09:35:13;;;;;;;7.38;2.70;;;;;;;;;;5134057;27;20075;-73
2021/03/15 09:37:47;;;;;;;7.53;2.75;;;;;;;;;;5117783;27;20530;-73
2021/03/15 09:40:13;;;;;;;6.78;2.80;;;;;;;;;;5138204;27;20031;-73
2021/03/15 09:42:41;;;;;;;6.05;2.30;;;;;;;;;;5119511;27;20087;-73
2021/03/15 09:45:07;;;;;;;5.40;2.53;;;;;;;;;;5138087;27;20039;-73
2021/03/15 09:47:33;;;;;;;6.97;3.00;;;;;;;;;;5137505;27;20109;-73
2021/03/15 09:49:59;;;;;;;4.85;2.22;;;;;;;;;;5137947;27;20027;-73
2021/03/15 09:52:44;;;;;;;10.70;3.03;;;;;;;;;;5137673;27;20394;-73
2021/03/15 09:55:13;;;;;;;10.00;3.28;;;;;;;;;;5119265;27;20034;-73
2021/03/15 09:57:38;;;;;;;9.80;3.03;;;;;;;;;;5137827;27;20488;-73
2021/03/15 10:00:17;;;;;;;11.15;3.05;;;;;;;;;;5119406;27;20038;-73
2021/03/15 10:03:02;;;;;;;7.00;2.78;;;;;;;;;;5137640;27;20050;-73
2021/03/15 10:05:48;;;;;;;8.93;3.17;;;;;;;;;;5137392;27;20040;-73
2021/03/15 10:08:54;;;;;;;10.68;3.33;;;;;;;;;;5073981;28;20051;-72
2021/03/15 10:11:42;;;;;;;10.82;3.00;;;;;;;;;;5059722;28;20138;-72
2021/03/15 10:14:30;;;;;;;5.10;2.53;;;;;;;;;;5123383;27;20078;-72
2021/03/15 10:17:21;;;;;;;8.20;2.80;;;;;;;;;;5137213;27;20171;-73
2021/03/15 10:20:09;;;;;;;9.10;2.90;;;;;;;;;;5135191;27;20039;-72
2021/03/15 10:22:36;;;;;;;8.77;2.25;;;;;;;;;;5118764;27;20503;-73
2021/03/15 10:25:04;;;;;;;9.43;2.40;;;;;;;;;;5137036;27;20062;-73
2021/03/15 10:27:34;;;;;;;9.80;2.90;;;;;;;;;;5118764;27;20050;-73
2021/03/15 10:30:06;;;;;;;8.20;2.90;;;;;;;;;;5102006;27;20399;-73
2021/03/15 10:32:33;;;;;;;11.85;2.55;;;;;;;;;;5136191;27;20369;-73
2021/03/15 10:35:04;;;;;;;13.63;2.95;;;;;;;;;;5118267;27;20034;-73
2021/03/15 10:37:42;;;;;;;8.88;2.30;;;;;;;;;;5118608;27;20043;-73
2021/03/15 10:40:24;;;;;;;9.20;2.45;;;;;;;;;;5136879;27;20038;-73
2021/03/15 10:42:52;;;;;;;8.13;2.40;;;;;;;;;;5118914;27;20031;-73
2021/03/15 10:45:22;;;;;;;11.63;3.85;;;;;;;;;;5136575;27;20065;-73
2021/03/15 10:48:05;;;;;;;6.07;2.10;;;;;;;;;;5118012;27;20031;-74
2021/03/15 10:50:47;;;;;;;9.13;2.53;;;;;;;;;;5118116;27;20087;-74
2021/03/15 10:53:23;;;;;;;12.27;3.35;;;;;;;;;;5136819;27;20047;-73
2021/03/15 10:55:52;;;;;;;11.43;2.80;;;;;;;;;;5100596;27;20034;-75
2021/03/15 10:58:23;;;;;;;7.97;2.50;;;;;;;;;;5118305;27;20023;-74
2021/03/15 11:01:03;;;;;;;6.93;2.30;;;;;;;;;;5104774;28;20038;-74
2021/03/15 11:03:35;;;;;;;7.63;2.22;;;;;;;;;;5098312;28;20424;-76
2021/03/15 11:06:17;;;;;;;12.95;2.45;;;;;;;;;;5098185;28;20032;-75
2021/03/15 11:08:54;;;;;;;6.35;1.92;;;;;;;;;;5097734;28;20032;-74
2021/03/15 11:11:22;;;;;;;10.43;2.63;;;;;;;;;;5097499;28;20032;-75
2021/03/15 11:13:59;;;;;;;7.70;2.30;;;;;;;;;;5097532;28;20603;-75
2021/03/15 11:16:29;;;;;;;10.10;2.05;;;;;;;;;;5097155;28;20433;-75
2021/03/15 11:19:05;;;;;;;6.47;2.00;;;;;;;;;;5097288;28;20039;-75
2021/03/15 11:21:40;;;;;;;7.50;2.15;;;;;;;;;;5097193;28;20094;-75
2021/03/15 11:24:12;;;;;;;6.90;1.90;;;;;;;;;;5115598;28;20023;-76
2021/03/15 11:26:53;;;;;;;6.45;2.20;;;;;;;;;;5118305;27;20038;-77
2021/03/15 11:29:38;;;;;;;6.97;2.05;;;;;;;;;;5117793;27;20057;-76
2021/03/15 11:32:14;;;;;;;6.97;2.50;;;;;;;;;;5117255;27;20035;-76
2021/03/15 11:34:49;;;;;;;6.65;2.13;;;;;;;;;;5117521;27;20046;-76
2021/03/15 11:37:28;;;;;;;5.70;2.45;;;;;;;;;;5117395;27;20074;-76
2021/03/15 11:40:05;;;;;;;6.75;2.03;;;;;;;;;;5135526;27;20039;-74
2021/03/15 11:42:38;;;;;;;7.43;2.00;;;;;;;;;;5117161;27;20063;-76
2021/03/15 11:45:10;;;;;;;6.43;2.25;;;;;;;;;;5135045;27;20050;-76
2021/03/15 11:47:36;;;;;;;7.40;1.83;;;;;;;;;;5117074;27;20039;-76
2021/03/15 11:50:23;;;;;;;6.77;2.03;;;;;;;;;;5103073;27;20039;-76
2021/03/15 11:52:56;;;;;;;11.27;1.92;;;;;;;;;;5117033;27;20788;-76
2021/03/15 11:55:26;;;;;;;8.20;2.22;;;;;;;;;;5116089;27;20385;-76
2021/03/15 11:57:52;;;;;;;7.40;2.40;;;;;;;;;;5116479;27;20051;-76
2021/03/15 12:00:19;;;;;;;5.78;1.92;;;;;;;;;;5135186;27;20428;-76
2021/03/15 12:02:46;;;;;;;12.85;3.00;;;;;;;;;;5135336;27;20439;-76
2021/03/15 12:05:31;;;;;;;10.95;2.28;;;;;;;;;;5119544;27;20488;-76
2021/03/15 12:07:58;;;;;;;7.47;2.22;;;;;;;;;;5099948;27;20042;-76
2021/03/15 12:10:23;;;;;;;8.63;2.15;;;;;;;;;;5116764;27;20035;-76
2021/03/15 12:12:48;;;;;;;5.55;2.13;;;;;;;;;;5116707;27;20088;-76
2021/03/15 12:15:14;;;;;;;6.40;2.42;;;;;;;;;;5135073;27;20041;-76
2021/03/15 12:17:43;;;;;;;4.57;1.63;;;;;;;;;;5116660;27;20481;-76
2021/03/15 12:20:10;;;;;;;8.48;1.98;;;;;;;;;;5116598;27;20031;-76
2021/03/15 12:22:48;;;;;;;5.30;2.00;;;;;;;;;;5115875;27;20118;-76
2021/03/15 12:25:16;;;;;;;4.75;1.65;;;;;;;;;;5134743;27;20034;-75
2021/03/15 12:27:49;;;;;;;7.20;1.70;;;;;;;;;;5116357;27;20035;-76
2021/03/15 12:30:15;;;;;;;6.53;1.90;;;;;;;;;;5116415;27;20114;-76
2021/03/15 12:32:41;;;;;;;5.70;1.83;;;;;;;;;;5116939;27;20035;-75
2021/03/15 12:35:07;;;;;;;5.30;1.42;;;;;;;;;;5135331;27;20023;-75
2021/03/15 12:37:34;;;;;;;6.88;2.25;;;;;;;;;;5135056;27;20031;-75
2021/03/15 12:40:06;;;;;;;5.38;2.00;;;;;;;;;;5117863;27;20535;-75
2021/03/15 12:42:33;;;;;;;10.25;2.28;;;;;;;;;;5119577;27;20113;-75
2021/03/15 12:45:09;;;;;;;4.35;1.45;;;;;;;;;;5117917;28;20035;-75
2021/03/15 12:47:42;;;;;;;7.20;2.03;;;;;;;;;;5101108;28;20031;-76
2021/03/15 12:50:09;;;;;;;5.72;1.50;;;;;;;;;;5113864;28;20093;-74
2021/03/15 12:52:34;;;;;;;5.22;1.92;;;;;;;;;;5115547;28;20254;-74
2021/03/15 12:55:13;;;;;;;5.55;1.70;;;;;;;;;;5098275;28;20031;-74
2021/03/15 12:57:41;;;;;;;5.03;2.60;;;;;;;;;;5114178;28;20031;-74
2021/03/15 13:00:11;;;;;;;5.40;1.35;;;;;;;;;;5114211;28;20635;-74
2021/03/15 13:03:03;;;;;;;4.45;1.42;;;;;;;;;;5113468;28;20485;-75
2021/03/15 13:05:31;;;;;;;6.60;1.85;;;;;;;;;;5096516;28;20039;-75
2021/03/15 13:08:15;;;;;;;7.03;1.50;;;;;;;;;;5114696;28;20515;-75
2021/03/15 13:10:56;;;;;;;4.32;1.60;;;;;;;;;;5113199;28;20035;-75
2021/03/15 13:13:22;;;;;;;10.02;1.92;;;;;;;;;;5112274;28;20027;-75
2021/03/15 13:15:47;;;;;;;3.25;1.20;;;;;;;;;;5095832;28;20019;-74
2021/03/15 13:18:18;;;;;;;5.75;1.75;;;;;;;;;;5096291;28;20019;-75
2021/03/15 13:20:51;;;;;;;2.08;1.02;;;;;;;;;;5112786;28;20035;-76
2021/03/15 13:23:17;;;;;;;5.22;1.75;;;;;;;;;;5113194;28;20036;-75
2021/03/15 13:25:55;;;;;;;2.38;1.35;;;;;;;;;;5111315;28;20813;-75
2021/03/15 13:28:27;;;;;;;6.75;1.60;;;;;;;;;;5112161;28;20181;-75
2021/03/15 13:30:53;;;;;;;3.95;1.67;;;;;;;;;;5113433;28;20122;-76
2021/03/15 13:33:19;;;;;;;3.67;1.27;;;;;;;;;;5112224;28;20485;-75
2021/03/15 13:35:50;;;;;;;2.22;1.05;;;;;;;;;;5096018;28;20024;-75
2021/03/15 13:38:20;;;;;;;4.30;1.92;;;;;;;;;;5112105;28;20024;-75
2021/03/15 13:40:55;;;;;;;5.72;1.30;;;;;;;;;;5113483;28;20023;-76
2021/03/15 13:43:43;;;;;;;3.00;0.98;;;;;;;;;;5104683;28;20047;-75
2021/03/15 13:46:15;;;;;;;1.50;0.90;;;;;;;;;;5110608;28;20036;-75
2021/03/15 13:48:50;;;;;;;3.33;0.90;;;;;;;;;;5095084;28;20110;-75
2021/03/15 13:51:17;;;;;;;3.10;1.45;;;;;;;;;;5112328;28;20039;-73
2021/03/15 13:53:45;;;;;;;5.00;1.13;;;;;;;;;;5112072;28;20557;-73
2021/03/15 13:56:11;;;;;;;2.67;1.13;;;;;;;;;;5111623;28;20060;-74
2021/03/15 13:58:44;;;;;;;4.38;1.15;;;;;;;;;;5112388;28;20674;-74
2021/03/15 14:01:13;;;;;;;3.63;1.10;;;;;;;;;;5112363;28;20028;-74
2021/03/15 14:04:02;;;;;;;4.47;1.33;;;;;;;;;;5112522;28;20031;-75
2021/03/15 14:06:37;;;;;;;3.60;1.20;;;;;;;;;;5111339;28;20474;-75
2021/03/15 14:09:06;;;;;;;2.10;1.00;;;;;;;;;;5113495;28;20028;-75
2021/03/15 14:11:34;;;;;;;1.60;1.00;;;;;;;;;;5112629;28;20042;-75
2021/03/15 14:14:00;;;;;;;8.80;2.03;;;;;;;;;;5112441;28;20115;-75
2021/03/15 14:16:25;;;;;;;3.88;1.35;;;;;;;;;;5113597;28;20110;-75
2021/03/15 14:19:04;;;;;;;3.35;1.23;;;;;;;;;;5112381;28;20081;-75
2021/03/15 14:21:53;;;;;;;4.18;1.30;;;;;;;;;;5104867;28;20039;-71
2021/03/15 14:24:29;;;;;;;5.07;1.40;;;;;;;;;;5114079;28;20386;-72
2021/03/15 14:27:03;;;;;;;6.40;1.40;;;;;;;;;;5116293;28;20393;-73
2021/03/15 14:29:28;;;;;;;2.63;1.05;;;;;;;;;;5117069;28;20047;-74
2021/03/15 14:32:05;;;;;;;4.28;1.92;;;;;;;;;;5115572;28;20031;-74
2021/03/15 14:34:50;;;;;;;3.78;1.30;;;;;;;;;;5094460;28;20044;-74
2021/03/15 14:37:26;;;;;;;2.78;1.10;;;;;;;;;;5096015;28;20036;-74
2021/03/15 14:39:52;;;;;;;4.60;1.33;;;;;;;;;;5097155;28;20169;-74
2021/03/15 14:42:19;;;;;;;4.10;1.20;;;;;;;;;;5097088;28;20115;-74
2021/03/15 14:44:48;;;;;;;4.07;1.27;;;;;;;;;;5096547;28;20028;-75
2021/03/15 14:47:21;;;;;;;5.55;1.77;;;;;;;;;;5098872;28;20506;-74
2021/03/15 14:50:19;;;;;;;3.70;1.42;;;;;;;;;;5118942;27;20050;-74
2021/03/15 14:53:08;;;;;;;5.95;1.42;;;;;;;;;;5126518;27;20118;-75
2021/03/15 14:55:38;;;;;;;7.18;2.00;;;;;;;;;;5137470;27;20365;-74
2021/03/15 14:58:04;;;;;;;3.53;1.45;;;;;;;;;;5118735;27;20024;-75
2021/03/15 15:00:30;;;;;;;7.00;1.65;;;;;;;;;;5118547;27;20106;-74